createdAt,value
2019-03-28T00:00:33.786Z,24.10
2019-03-28T00:01:34.018Z,24.16
2019-03-28T00:02:34.031Z,24.19
2019-03-28T00:03:33.758Z,24.14
2019-03-28T00:04:34.015Z,24.23
2019-03-28T00:05:34.002Z,24.19
2019-03-28T00:06:33.992Z,24.17
2019-03-28T00:07:33.731Z,24.13
2019-03-28T00:08:33.977Z,24.32
2019-03-28T00:09:33.757Z,24.23
2019-03-28T00:10:33.752Z,24.27
2019-03-28T00:11:33.747Z,24.23
2019-03-28T00:12:33.735Z,24.31
2019-03-28T00:13:33.788Z,24.29
2019-03-28T00:14:33.931Z,24.31
2019-03-28T00:15:33.719Z,24.32
2019-03-28T00:16:33.925Z,24.31
2019-03-28T00:17:33.874Z,24.35
2019-03-28T00:18:33.876Z,24.35
2019-03-28T00:19:33.902Z,24.35
2019-03-28T00:20:33.669Z,24.38
2019-03-28T00:21:33.866Z,24.49
2019-03-28T00:22:33.887Z,24.45
2019-03-28T00:23:33.632Z,24.44
2019-03-28T00:24:33.856Z,24.47
2019-03-28T00:25:33.836Z,24.52
2019-03-28T00:26:33.607Z,24.44
2019-03-28T00:27:33.866Z,24.52
2019-03-28T00:28:33.592Z,24.52
2019-03-28T00:29:33.847Z,24.49
2019-03-28T00:30:33.533Z,24.53
2019-03-28T00:31:33.529Z,24.50
2019-03-28T00:32:33.520Z,24.52
2019-03-28T00:33:33.779Z,24.52
2019-03-28T00:34:33.545Z,24.54
2019-03-28T00:35:33.753Z,24.54
2019-03-28T00:36:33.520Z,24.56
2019-03-28T00:37:33.752Z,24.50
2019-03-28T00:38:33.728Z,24.56
2019-03-28T00:39:33.742Z,24.49
2019-03-28T00:40:33.712Z,24.54
2019-03-28T00:41:33.671Z,24.57
2019-03-28T00:42:33.745Z,24.67
2019-03-28T00:43:33.440Z,24.59
2019-03-28T00:44:33.463Z,24.63
2019-03-28T00:45:33.456Z,24.64
2019-03-28T00:46:33.405Z,24.63
2019-03-28T00:47:33.695Z,24.61
2019-03-28T00:48:33.387Z,24.64
2019-03-28T00:49:33.379Z,24.59
2019-03-28T00:50:34.391Z,24.67
2019-03-28T00:51:33.366Z,24.63
2019-03-28T00:52:33.641Z,24.60
2019-03-28T00:53:33.637Z,24.61
2019-03-28T00:54:33.635Z,24.60
2019-03-28T00:55:33.598Z,24.63
2019-03-28T00:56:44.726Z,24.67
2019-03-28T00:57:33.577Z,24.63
2019-03-28T00:58:34.172Z,24.67
2019-03-28T00:59:33.337Z,24.59
2019-03-28T01:00:33.325Z,24.61
2019-03-28T01:01:33.550Z,24.59
2019-03-28T01:02:33.535Z,24.63
2019-03-28T01:03:33.262Z,24.67
2019-03-28T01:04:33.509Z,24.56
2019-03-28T01:05:33.245Z,24.56
2019-03-28T01:06:33.477Z,24.63
2019-03-28T01:07:33.261Z,24.63
2019-03-28T01:08:33.521Z,24.60
2019-03-28T01:09:33.482Z,24.60
2019-03-28T01:10:33.502Z,24.61
2019-03-28T01:11:33.341Z,24.49
2019-03-28T01:12:33.489Z,24.64
2019-03-28T01:13:33.218Z,24.49
2019-03-28T01:14:33.431Z,24.56
2019-03-28T01:15:33.441Z,24.52
2019-03-28T01:16:33.160Z,24.52
2019-03-28T01:17:33.405Z,24.60
2019-03-28T01:18:33.188Z,24.60
2019-03-28T01:19:33.414Z,24.63
2019-03-28T01:20:33.123Z,24.63
2019-03-28T01:21:33.384Z,24.61
2019-03-28T01:22:33.381Z,24.67
2019-03-28T01:23:33.107Z,24.59
2019-03-28T01:24:33.102Z,24.59
2019-03-28T01:25:33.091Z,24.69
2019-03-28T01:26:33.085Z,24.73
2019-03-28T01:27:33.066Z,24.63
2019-03-28T01:28:33.067Z,24.71
2019-03-28T01:29:33.319Z,24.69
2019-03-28T01:30:33.310Z,24.73
2019-03-28T01:31:33.032Z,24.69
2019-03-28T01:32:33.264Z,24.73
2019-03-28T01:33:33.253Z,24.77
2019-03-28T01:34:33.370Z,24.77
2019-03-28T01:35:33.041Z,24.76
2019-03-28T01:36:33.024Z,24.75
2019-03-28T01:37:33.223Z,24.75
2019-03-28T01:38:33.229Z,24.75
2019-03-28T01:39:33.003Z,24.77
2019-03-28T01:40:33.233Z,24.76
2019-03-28T01:41:32.978Z,24.77
2019-03-28T01:42:32.948Z,24.69
2019-03-28T01:43:33.182Z,24.76
2019-03-28T01:44:33.207Z,24.73
2019-03-28T01:45:33.339Z,24.73
2019-03-28T01:46:32.948Z,24.76
2019-03-28T01:47:32.913Z,24.76
2019-03-28T01:48:33.219Z,24.73
2019-03-28T01:49:33.123Z,24.76
2019-03-28T01:50:33.118Z,24.76
2019-03-28T01:51:33.150Z,24.71
2019-03-28T01:52:32.869Z,24.61
2019-03-28T01:53:33.127Z,24.64
2019-03-28T01:54:32.847Z,24.64
2019-03-28T01:55:33.122Z,24.61
2019-03-28T01:56:33.102Z,24.57
2019-03-28T01:57:33.059Z,24.61
2019-03-28T01:58:33.048Z,24.67
2019-03-28T01:59:33.044Z,24.61
2019-03-28T02:00:33.077Z,24.61
2019-03-28T02:01:33.068Z,24.63
2019-03-28T02:02:32.839Z,24.73
2019-03-28T02:03:32.846Z,24.76
2019-03-28T02:04:32.814Z,24.68
2019-03-28T02:05:32.810Z,24.63
2019-03-28T02:06:32.797Z,24.69
2019-03-28T02:07:33.015Z,24.71
2019-03-28T02:08:33.031Z,24.69
2019-03-28T02:09:33.002Z,24.73
2019-03-28T02:10:32.954Z,24.75
2019-03-28T02:11:32.752Z,24.71
2019-03-28T02:12:32.963Z,24.79
2019-03-28T02:13:32.951Z,24.68
2019-03-28T02:14:32.695Z,24.71
2019-03-28T02:15:32.963Z,24.64
2019-03-28T02:16:32.940Z,24.75
2019-03-28T02:17:32.702Z,24.77
2019-03-28T02:18:32.902Z,24.77
2019-03-28T02:19:32.913Z,24.76
2019-03-28T02:20:32.646Z,24.73
2019-03-28T02:21:32.634Z,24.71
2019-03-28T02:22:32.627Z,24.77
2019-03-28T02:23:32.617Z,24.75
2019-03-28T02:24:32.841Z,24.77
2019-03-28T02:25:32.649Z,24.77
2019-03-28T02:26:32.892Z,24.76
2019-03-28T02:27:32.635Z,24.80
2019-03-28T02:28:32.584Z,24.77
2019-03-28T02:29:33.174Z,24.73
2019-03-28T02:30:32.829Z,24.76
2019-03-28T02:31:32.609Z,24.77
2019-03-28T02:32:33.807Z,24.67
2019-03-28T02:33:32.801Z,24.73
2019-03-28T02:34:32.787Z,24.77
2019-03-28T02:35:32.798Z,24.77
2019-03-28T02:36:32.754Z,24.75
2019-03-28T02:37:32.503Z,24.71
2019-03-28T02:38:32.769Z,24.75
2019-03-28T02:39:32.486Z,24.77
2019-03-28T02:40:32.764Z,24.76
2019-03-28T02:41:32.750Z,24.80
2019-03-28T02:42:32.746Z,24.82
2019-03-28T02:43:32.707Z,24.83
2019-03-28T02:44:32.719Z,24.77
2019-03-28T02:45:32.466Z,24.92
2019-03-28T02:46:32.703Z,24.87
2019-03-28T02:47:32.443Z,24.82
2019-03-28T02:48:32.475Z,24.76
2019-03-28T02:49:32.669Z,24.79
2019-03-28T02:50:32.692Z,24.82
2019-03-28T02:51:32.648Z,24.82
2019-03-28T02:52:32.426Z,24.79
2019-03-28T02:53:32.637Z,24.77
2019-03-28T02:54:32.635Z,24.73
2019-03-28T02:55:32.664Z,24.77
2019-03-28T02:56:39.037Z,24.73
2019-03-28T02:57:41.202Z,24.76
2019-03-28T02:58:32.574Z,24.79
2019-03-28T02:59:32.643Z,24.79
2019-03-28T03:00:32.574Z,24.75
2019-03-28T03:01:33.967Z,24.80
2019-03-28T03:02:32.685Z,24.76
2019-03-28T03:03:32.585Z,24.83
2019-03-28T03:04:32.333Z,24.79
2019-03-28T03:05:32.519Z,24.77
2019-03-28T03:06:34.264Z,24.77
2019-03-28T03:07:32.489Z,24.82
2019-03-28T03:08:34.326Z,24.80
2019-03-28T03:09:32.561Z,24.80
2019-03-28T03:10:32.530Z,24.90
2019-03-28T03:11:32.535Z,24.85
2019-03-28T03:12:32.512Z,24.82
2019-03-28T03:13:32.501Z,24.87
2019-03-28T03:14:32.487Z,24.88
2019-03-28T03:15:32.480Z,24.80
2019-03-28T03:16:32.201Z,24.76
2019-03-28T03:17:32.235Z,24.75
2019-03-28T03:18:33.753Z,24.76
2019-03-28T03:19:32.250Z,24.75
2019-03-28T03:20:32.427Z,24.71
2019-03-28T03:21:32.553Z,24.75
2019-03-28T03:22:32.802Z,24.71
2019-03-28T03:23:32.414Z,24.80
2019-03-28T03:24:32.172Z,24.76
2019-03-28T03:25:32.409Z,24.75
2019-03-28T03:26:32.381Z,24.71
2019-03-28T03:27:32.924Z,24.76
2019-03-28T03:28:32.791Z,24.75
2019-03-28T03:29:32.145Z,24.75
2019-03-28T03:30:32.419Z,24.77
2019-03-28T03:31:32.347Z,24.79
2019-03-28T03:32:32.312Z,24.80
2019-03-28T03:33:32.482Z,24.77
2019-03-28T03:34:33.058Z,24.77
2019-03-28T03:35:32.323Z,24.85
2019-03-28T03:36:32.080Z,24.87
2019-03-28T03:37:32.268Z,24.88
2019-03-28T03:38:32.107Z,24.91
2019-03-28T03:39:35.442Z,24.90
2019-03-28T03:40:32.243Z,24.92
2019-03-28T03:41:32.019Z,24.90
2019-03-28T03:42:32.294Z,24.92
2019-03-28T03:43:32.827Z,24.88
2019-03-28T03:44:33.118Z,24.91
2019-03-28T03:45:32.202Z,24.83
2019-03-28T03:46:32.258Z,24.94
2019-03-28T03:47:32.247Z,24.87
2019-03-28T03:48:32.144Z,24.91
2019-03-28T03:49:32.314Z,24.88
2019-03-28T03:50:31.945Z,24.87
2019-03-28T03:51:32.204Z,24.85
2019-03-28T03:52:32.183Z,24.88
2019-03-28T03:53:32.169Z,24.77
2019-03-28T03:54:32.132Z,24.76
2019-03-28T03:55:32.166Z,24.75
2019-03-28T03:56:31.921Z,24.75
2019-03-28T03:57:31.907Z,24.71
2019-03-28T03:58:32.120Z,24.76
2019-03-28T03:59:31.904Z,24.75
2019-03-28T04:00:32.122Z,24.79
2019-03-28T04:01:32.136Z,24.77
2019-03-28T04:02:33.209Z,24.73
2019-03-28T04:03:33.335Z,24.79
2019-03-28T04:04:33.360Z,24.76
2019-03-28T04:05:32.051Z,24.75
2019-03-28T04:06:32.481Z,24.77
2019-03-28T04:07:32.786Z,24.82
2019-03-28T04:08:32.065Z,24.83
2019-03-28T04:09:31.843Z,24.87
2019-03-28T04:10:32.055Z,24.82
2019-03-28T04:11:32.032Z,24.90
2019-03-28T04:12:31.763Z,24.88
2019-03-28T04:13:32.117Z,24.85
2019-03-28T04:14:32.297Z,24.87
2019-03-28T04:15:32.026Z,24.90
2019-03-28T04:16:31.730Z,24.90
2019-03-28T04:17:31.997Z,24.94
2019-03-28T04:18:31.759Z,24.87
2019-03-28T04:19:32.154Z,24.90
2019-03-28T04:20:31.696Z,24.91
2019-03-28T04:21:32.657Z,24.90
2019-03-28T04:22:31.681Z,24.90
2019-03-28T04:23:31.701Z,24.91
2019-03-28T04:24:31.753Z,24.88
2019-03-28T04:25:31.674Z,24.94
2019-03-28T04:26:32.089Z,24.92
2019-03-28T04:27:31.879Z,24.91
2019-03-28T04:28:32.822Z,24.90
2019-03-28T04:29:31.930Z,24.88
2019-03-28T04:30:31.619Z,24.90
2019-03-28T04:31:31.853Z,24.97
2019-03-28T04:32:31.895Z,24.95
2019-03-28T04:33:31.634Z,24.98
2019-03-28T04:34:31.628Z,24.98
2019-03-28T04:35:31.641Z,25.00
2019-03-28T04:36:33.650Z,25.00
2019-03-28T04:37:32.629Z,24.95
2019-03-28T04:38:31.816Z,24.97
2019-03-28T04:39:31.586Z,25.02
2019-03-28T04:40:31.857Z,25.00
2019-03-28T04:41:31.569Z,24.95
2019-03-28T04:42:31.779Z,24.95
2019-03-28T04:43:31.549Z,24.94
2019-03-28T04:44:31.746Z,24.91
2019-03-28T04:45:31.536Z,24.87
2019-03-28T04:46:31.769Z,24.88
2019-03-28T04:47:31.718Z,24.85
2019-03-28T04:48:31.772Z,24.90
2019-03-28T04:49:31.466Z,24.94
2019-03-28T04:50:31.714Z,24.91
2019-03-28T04:51:31.706Z,24.90
2019-03-28T04:52:32.109Z,24.85
2019-03-28T04:53:31.435Z,24.90
2019-03-28T04:54:31.421Z,24.88
2019-03-28T04:55:31.685Z,24.90
2019-03-28T04:56:31.637Z,24.90
2019-03-28T04:57:31.439Z,24.82
2019-03-28T04:58:43.529Z,24.90
2019-03-28T04:59:31.617Z,24.85
2019-03-28T05:00:31.678Z,24.90
2019-03-28T05:01:31.429Z,24.79
2019-03-28T05:02:31.630Z,24.76
2019-03-28T05:03:31.660Z,24.76
2019-03-28T05:04:31.381Z,24.69
2019-03-28T05:05:31.935Z,24.77
2019-03-28T05:06:31.569Z,24.71
2019-03-28T05:07:31.328Z,24.79
2019-03-28T05:08:31.322Z,24.69
2019-03-28T05:09:31.613Z,24.69
2019-03-28T05:10:33.083Z,24.73
2019-03-28T05:11:31.517Z,24.68
2019-03-28T05:12:31.554Z,24.67
2019-03-28T05:13:31.570Z,24.64
2019-03-28T05:14:31.271Z,24.73
2019-03-28T05:15:32.094Z,24.69
2019-03-28T05:16:31.519Z,24.67
2019-03-28T05:17:31.538Z,24.71
2019-03-28T05:18:31.250Z,24.68
2019-03-28T05:19:31.241Z,24.76
2019-03-28T05:20:31.485Z,24.76
2019-03-28T05:21:31.614Z,24.79
2019-03-28T05:22:31.467Z,24.69
2019-03-28T05:23:31.515Z,24.73
2019-03-28T05:24:32.413Z,24.69
2019-03-28T05:25:31.458Z,24.64
2019-03-28T05:26:31.459Z,24.71
2019-03-28T05:27:31.178Z,24.60
2019-03-28T05:28:31.503Z,24.73
2019-03-28T05:29:31.475Z,24.75
2019-03-28T05:30:31.208Z,24.67
2019-03-28T05:31:31.381Z,24.68
2019-03-28T05:32:31.383Z,24.61
2019-03-28T05:33:31.391Z,24.59
2019-03-28T05:34:31.147Z,24.67
2019-03-28T05:35:31.533Z,24.63
2019-03-28T05:36:31.152Z,24.71
2019-03-28T05:37:31.089Z,24.63
2019-03-28T05:38:31.388Z,24.63
2019-03-28T05:39:31.361Z,24.71
2019-03-28T05:40:31.310Z,24.73
2019-03-28T05:41:53.334Z,24.73
2019-03-28T05:42:31.289Z,24.71
2019-03-28T05:43:31.316Z,24.77
2019-03-28T05:44:31.317Z,24.77
2019-03-28T05:45:31.068Z,24.75
2019-03-28T05:46:31.053Z,24.64
2019-03-28T05:47:31.298Z,24.77
2019-03-28T05:48:30.996Z,24.90
2019-03-28T05:49:31.265Z,24.83
2019-03-28T05:50:31.023Z,24.83
2019-03-28T05:51:30.979Z,24.92
2019-03-28T05:52:31.236Z,24.91
2019-03-28T05:53:30.962Z,24.95
2019-03-28T05:54:31.252Z,25.00
2019-03-28T05:55:30.990Z,25.02
2019-03-28T05:56:31.241Z,25.09
2019-03-28T05:57:30.966Z,25.10
2019-03-28T06:00:03.816Z,25.01
2019-03-28T06:01:03.883Z,25.13
2019-03-28T06:02:03.854Z,25.07
2019-03-28T06:03:03.596Z,25.10
2019-03-28T06:04:03.615Z,25.02
2019-03-28T06:05:03.809Z,25.07
2019-03-28T06:06:03.848Z,25.10
2019-03-28T06:07:03.817Z,25.13
2019-03-28T06:08:03.790Z,25.09
2019-03-28T06:09:03.566Z,25.15
2019-03-28T06:10:03.512Z,25.10
2019-03-28T06:11:03.531Z,25.13
2019-03-28T06:12:03.772Z,24.98
2019-03-28T06:13:03.769Z,25.09
2019-03-28T06:14:03.732Z,25.13
2019-03-28T06:15:03.518Z,25.01
2019-03-28T06:16:03.518Z,25.17
2019-03-28T06:17:03.494Z,25.02
2019-03-28T06:18:03.694Z,25.10
2019-03-28T06:19:03.721Z,25.09
2019-03-28T06:20:04.242Z,24.98
2019-03-28T06:21:03.679Z,24.97
2019-03-28T06:22:03.428Z,25.00
2019-03-28T06:23:03.648Z,24.98
2019-03-28T06:24:03.413Z,24.98
2019-03-28T06:25:05.764Z,24.95
2019-03-28T06:26:03.419Z,24.88
2019-03-28T06:27:03.729Z,24.92
2019-03-28T06:28:03.385Z,24.90
2019-03-28T06:29:03.367Z,24.90
2019-03-28T06:30:03.822Z,24.88
2019-03-28T06:31:03.657Z,24.92
2019-03-28T06:32:03.591Z,24.90
2019-03-28T06:33:03.332Z,24.95
2019-03-28T06:34:03.352Z,24.98
2019-03-28T06:35:03.315Z,24.97
2019-03-28T06:36:03.586Z,24.98
2019-03-28T06:37:03.369Z,24.98
2019-03-28T06:38:03.307Z,24.95
2019-03-28T06:40:35.818Z,24.95
2019-03-28T06:41:35.613Z,25.00
2019-03-28T06:45:03.237Z,24.95
2019-03-28T06:46:01.007Z,25.02
2019-03-28T06:47:54.675Z,24.92
2019-03-28T06:48:54.093Z,24.95
2019-03-28T06:50:47.538Z,24.92
2019-03-28T06:51:47.687Z,24.90
2019-03-28T06:53:41.353Z,24.92
2019-03-28T06:54:41.354Z,24.88
2019-03-28T06:56:35.249Z,24.88
2019-03-28T06:57:34.730Z,24.83
2019-03-28T06:59:37.305Z,24.79
2019-03-28T07:00:29.048Z,24.83
2019-03-28T07:02:22.372Z,24.82
2019-03-28T07:03:22.276Z,24.90
2019-03-28T07:05:15.688Z,24.80
2019-03-28T07:06:15.443Z,24.90
2019-03-28T07:08:09.098Z,24.90
2019-03-28T07:09:09.024Z,24.80
2019-03-28T07:11:02.785Z,24.79
2019-03-28T07:12:02.124Z,24.85
2019-03-28T07:13:55.554Z,24.75
2019-03-28T07:14:55.465Z,24.73
2019-03-28T07:16:49.079Z,24.75
2019-03-28T07:17:48.832Z,24.73
2019-03-28T07:19:42.475Z,24.71
2019-03-28T07:20:42.262Z,24.64
2019-03-28T07:22:36.153Z,24.67
2019-03-28T07:23:35.589Z,24.69
2019-03-28T07:25:29.133Z,24.71
2019-03-28T07:26:28.970Z,24.71
2019-03-28T07:27:29.278Z,24.67
2019-03-28T07:28:29.996Z,24.71
2019-03-28T07:29:29.027Z,24.69
2019-03-28T07:30:29.168Z,24.73
2019-03-28T07:31:29.127Z,24.69
2019-03-28T07:32:29.185Z,24.69
2019-03-28T07:33:29.212Z,24.73
2019-03-28T07:34:28.900Z,24.75
2019-03-28T07:35:28.907Z,24.75
2019-03-28T07:36:28.899Z,24.73
2019-03-28T07:37:29.104Z,24.71
2019-03-28T07:38:29.162Z,24.71
2019-03-28T07:39:28.855Z,24.69
2019-03-28T07:40:28.882Z,24.67
2019-03-28T07:41:29.142Z,24.63
2019-03-28T07:42:29.097Z,24.73
2019-03-28T07:43:29.068Z,24.73
2019-03-28T07:44:28.876Z,24.73
2019-03-28T07:45:29.066Z,24.75
2019-03-28T07:46:29.075Z,24.75
2019-03-28T07:47:28.812Z,24.77
2019-03-28T07:48:28.793Z,24.77
2019-03-28T07:49:28.802Z,24.73
2019-03-28T07:50:29.051Z,24.73
2019-03-28T07:51:29.026Z,24.75
2019-03-28T07:52:29.016Z,24.71
2019-03-28T07:53:28.770Z,24.73
2019-03-28T07:54:28.744Z,24.71
2019-03-28T07:55:28.993Z,24.75
2019-03-28T07:56:29.022Z,24.69
2019-03-28T07:57:28.755Z,24.68
2019-03-28T07:58:28.963Z,24.73
2019-03-28T07:59:28.686Z,24.67
2019-03-28T08:00:28.921Z,24.73
2019-03-28T08:01:28.649Z,24.68
2019-03-28T08:02:28.692Z,24.73
2019-03-28T08:03:28.923Z,24.77
2019-03-28T08:04:28.890Z,24.67
2019-03-28T08:05:28.930Z,24.69
2019-03-28T08:06:28.657Z,24.69
2019-03-28T08:07:28.626Z,24.63
2019-03-28T08:08:38.355Z,24.71
2019-03-28T08:09:36.669Z,24.64
2019-03-28T08:10:28.847Z,24.73
2019-03-28T08:11:29.014Z,24.63
2019-03-28T08:12:28.601Z,24.68
2019-03-28T08:13:29.562Z,24.69
2019-03-28T08:14:28.825Z,24.73
2019-03-28T08:15:28.559Z,24.71
2019-03-28T08:16:28.977Z,24.77
2019-03-28T08:17:30.516Z,24.64
2019-03-28T08:18:28.769Z,24.60
2019-03-28T08:19:28.768Z,24.63
2019-03-28T08:20:28.768Z,24.61
2019-03-28T08:21:28.834Z,24.63
2019-03-28T08:22:29.879Z,24.50
2019-03-28T08:23:28.789Z,24.47
2019-03-28T08:24:28.483Z,24.54
2019-03-28T08:25:28.702Z,24.52
2019-03-28T08:26:30.181Z,24.54
2019-03-28T08:27:28.752Z,24.45
2019-03-28T08:28:28.742Z,24.59
2019-03-28T08:29:28.456Z,24.53
2019-03-28T08:30:28.420Z,24.54
2019-03-28T08:31:28.654Z,24.54
2019-03-28T08:34:02.036Z,24.53
2019-03-28T08:35:00.575Z,24.53
2019-03-28T08:36:54.115Z,24.50
2019-03-28T08:37:53.839Z,24.53
2019-03-28T08:39:47.660Z,24.53
2019-03-28T08:40:47.175Z,24.54
2019-03-28T08:42:40.880Z,24.47
2019-03-28T08:43:40.802Z,24.57
2019-03-28T08:45:34.402Z,24.57
2019-03-28T08:46:33.610Z,24.49
2019-03-28T08:49:27.484Z,24.57
2019-03-28T08:52:20.050Z,24.49
2019-03-28T08:54:14.776Z,24.50
2019-03-28T08:55:14.375Z,24.50
2019-03-28T08:57:07.965Z,24.50
2019-03-28T08:58:08.171Z,24.53
2019-03-28T09:00:01.064Z,24.52
2019-03-28T09:02:18.118Z,24.60
2019-03-28T09:06:41.199Z,24.56
2019-03-28T09:07:41.547Z,24.63
2019-03-28T09:09:35.569Z,24.50
2019-03-28T09:10:34.583Z,24.60
2019-03-28T09:12:27.957Z,24.54
2019-03-28T09:13:27.929Z,24.50
2019-03-28T09:15:22.716Z,24.60
2019-03-28T09:16:22.451Z,24.61
2019-03-28T09:18:15.797Z,24.63
2019-03-28T09:21:16.055Z,24.61
2019-03-28T09:22:15.590Z,24.59
2019-03-28T09:24:09.203Z,24.61
2019-03-28T09:25:08.928Z,24.64
2019-03-28T09:27:02.886Z,24.61
2019-03-28T09:28:02.522Z,24.67
2019-03-28T09:29:55.885Z,24.63
2019-03-28T09:30:55.906Z,24.61
2019-03-28T09:32:49.667Z,24.69
2019-03-28T09:33:49.393Z,24.69
2019-03-28T09:35:42.788Z,24.71
2019-03-28T09:36:42.490Z,24.77
2019-03-28T09:37:42.755Z,24.76
2019-03-28T09:38:42.526Z,24.90
2019-03-28T09:39:42.503Z,24.83
2019-03-28T09:40:42.464Z,24.85
2019-03-28T09:41:42.732Z,24.85
2019-03-28T09:42:42.666Z,24.88
2019-03-28T09:43:54.617Z,24.90
2019-03-28T09:44:42.432Z,24.92
2019-03-28T09:45:42.678Z,24.94
2019-03-28T09:46:42.681Z,24.98
2019-03-28T09:47:42.400Z,24.97
2019-03-28T09:48:42.642Z,24.92
2019-03-28T09:49:42.385Z,24.98
2019-03-28T09:50:42.378Z,25.02
2019-03-28T09:51:42.639Z,24.98
2019-03-28T09:52:42.375Z,25.00
2019-03-28T09:53:42.582Z,25.06
2019-03-28T09:54:42.360Z,25.05
2019-03-28T09:55:42.586Z,25.01
2019-03-28T09:56:42.639Z,24.97
2019-03-28T09:57:42.601Z,25.06
2019-03-28T09:58:42.329Z,25.06
2019-03-28T09:59:42.534Z,25.01
2019-03-28T10:00:42.557Z,25.05
2019-03-28T10:01:42.547Z,25.12
2019-03-28T10:02:44.141Z,25.09
2019-03-28T10:03:42.549Z,25.05
2019-03-28T10:04:42.531Z,25.05
2019-03-28T10:05:42.527Z,25.09
2019-03-28T10:06:42.253Z,25.01
2019-03-28T10:07:42.287Z,25.01
2019-03-28T10:08:42.466Z,25.10
2019-03-28T10:09:42.542Z,25.13
2019-03-28T10:10:42.443Z,25.02
2019-03-28T10:11:42.481Z,25.09
2019-03-28T10:12:44.132Z,25.07
2019-03-28T10:13:42.187Z,25.01
2019-03-28T10:14:42.436Z,25.07
2019-03-28T10:15:42.406Z,25.02
2019-03-28T10:16:42.411Z,25.09
2019-03-28T10:17:42.520Z,25.02
2019-03-28T10:18:42.222Z,25.12
2019-03-28T10:19:42.391Z,25.00
2019-03-28T10:20:42.412Z,25.02
2019-03-28T10:21:42.163Z,25.02
2019-03-28T10:22:42.358Z,25.13
2019-03-28T10:23:42.136Z,25.13
2019-03-28T10:24:42.324Z,25.05
2019-03-28T10:25:42.123Z,24.98
2019-03-28T10:26:42.325Z,25.00
2019-03-28T10:27:42.087Z,25.10
2019-03-28T10:28:42.096Z,25.00
2019-03-28T10:29:42.066Z,25.01
2019-03-28T10:30:42.058Z,25.02
2019-03-28T10:31:42.093Z,25.07
2019-03-28T10:32:42.042Z,25.10
2019-03-28T10:33:42.300Z,25.10
2019-03-28T10:34:42.032Z,25.10
2019-03-28T10:35:42.246Z,25.13
2019-03-28T10:36:42.279Z,25.09
2019-03-28T10:37:42.287Z,25.15
2019-03-28T10:38:42.238Z,25.13
2019-03-28T10:39:41.988Z,25.09
2019-03-28T10:40:42.015Z,25.15
2019-03-28T10:41:42.007Z,25.05
2019-03-28T10:42:41.983Z,25.17
2019-03-28T10:43:41.992Z,25.10
2019-03-28T10:44:41.999Z,25.19
2019-03-28T10:45:42.181Z,25.09
2019-03-28T10:46:42.168Z,25.12
2019-03-28T10:47:41.959Z,25.15
2019-03-28T10:48:42.179Z,25.13
2019-03-28T10:49:41.909Z,25.10
2019-03-28T10:50:45.556Z,25.01
2019-03-28T10:51:41.899Z,25.10
2019-03-28T10:52:41.916Z,25.13
2019-03-28T10:53:42.108Z,25.13
2019-03-28T10:54:41.900Z,25.13
2019-03-28T10:55:42.527Z,25.13
2019-03-28T10:56:51.650Z,25.15
2019-03-28T10:57:42.079Z,25.13
2019-03-28T10:58:42.065Z,25.12
2019-03-28T10:59:42.051Z,25.10
2019-03-28T11:00:42.075Z,25.10
2019-03-28T11:01:49.065Z,25.07
2019-03-28T11:02:42.035Z,25.10
2019-03-28T11:03:42.067Z,25.01
2019-03-28T11:04:42.061Z,25.05
2019-03-28T11:05:41.790Z,25.07
2019-03-28T11:06:42.001Z,25.05
2019-03-28T11:07:42.031Z,25.01
2019-03-28T11:08:42.645Z,25.00
2019-03-28T11:09:42.019Z,25.13
2019-03-28T11:10:41.733Z,25.06
2019-03-28T11:11:41.768Z,25.00
2019-03-28T11:12:42.004Z,25.05
2019-03-28T11:13:41.722Z,25.01
2019-03-28T11:14:41.944Z,25.00
2019-03-28T11:15:41.735Z,25.05
2019-03-28T11:16:41.964Z,25.09
2019-03-28T11:17:41.718Z,25.10
2019-03-28T11:18:41.900Z,25.16
2019-03-28T11:19:41.892Z,25.07
2019-03-28T11:20:41.892Z,25.09
2019-03-28T11:21:41.654Z,25.05
2019-03-28T11:22:41.649Z,25.09
2019-03-28T11:23:41.908Z,25.06
2019-03-28T11:24:41.624Z,25.12
2019-03-28T11:25:41.619Z,25.02
2019-03-28T11:26:41.654Z,25.07
2019-03-28T11:27:41.637Z,25.10
2019-03-28T11:28:42.250Z,25.13
2019-03-28T11:29:41.584Z,25.10
2019-03-28T11:30:41.809Z,25.13
2019-03-28T11:31:46.857Z,25.09
2019-03-28T11:32:41.594Z,24.98
2019-03-28T11:34:41.815Z,25.05
2019-03-28T11:35:41.857Z,25.07
2019-03-28T11:36:41.807Z,25.00
2019-03-28T11:37:41.527Z,25.06
2019-03-28T11:38:41.507Z,25.06
2019-03-28T11:39:41.740Z,25.07
2019-03-28T11:40:42.958Z,25.07
2019-03-28T11:41:41.761Z,25.12
2019-03-28T11:42:41.759Z,25.12
2019-03-28T11:43:41.746Z,25.15
2019-03-28T11:44:41.547Z,25.07
2019-03-28T11:45:41.449Z,25.09
2019-03-28T11:46:41.500Z,25.15
2019-03-28T11:47:41.731Z,25.10
2019-03-28T11:48:41.439Z,25.07
2019-03-28T11:49:41.659Z,25.12
2019-03-28T11:50:41.652Z,25.07
2019-03-28T11:51:41.642Z,25.10
2019-03-28T11:52:42.753Z,25.15
2019-03-28T11:53:41.487Z,25.10
2019-03-28T11:54:41.385Z,25.16
2019-03-28T11:55:41.610Z,25.16
2019-03-28T11:56:41.607Z,25.10
2019-03-28T11:57:41.601Z,25.09
2019-03-28T11:58:41.372Z,25.00
2019-03-28T11:59:41.618Z,25.15
2019-03-28T12:00:41.610Z,25.06
2019-03-28T12:01:41.587Z,25.12
2019-03-28T12:02:41.558Z,25.13
2019-03-28T12:03:41.352Z,25.00
2019-03-28T12:04:41.542Z,25.15
2019-03-28T12:05:41.578Z,25.16
2019-03-28T12:06:41.300Z,25.12
2019-03-28T12:07:41.549Z,25.15
2019-03-28T12:08:41.277Z,25.13
2019-03-28T12:09:41.307Z,25.12
2019-03-28T12:10:41.492Z,25.10
2019-03-28T12:11:41.283Z,25.01
2019-03-28T12:12:41.526Z,25.15
2019-03-28T12:13:44.997Z,25.10
2019-03-28T12:14:41.238Z,25.15
2019-03-28T12:15:41.494Z,25.13
2019-03-28T12:16:41.224Z,25.12
2019-03-28T12:17:41.244Z,25.19
2019-03-28T12:18:41.444Z,25.12
2019-03-28T12:19:41.191Z,25.15
2019-03-28T12:20:41.180Z,25.15
2019-03-28T12:21:41.443Z,25.09
2019-03-28T12:22:41.454Z,25.10
2019-03-28T12:23:41.427Z,25.10
2019-03-28T12:24:41.150Z,25.13
2019-03-28T12:25:41.151Z,25.10
2019-03-28T12:26:41.393Z,25.16
2019-03-28T12:27:41.404Z,25.15
2019-03-28T12:28:41.118Z,25.09
2019-03-28T12:29:41.347Z,25.09
2019-03-28T12:30:41.105Z,25.12
2019-03-28T12:31:41.352Z,25.10
2019-03-28T12:32:41.307Z,25.09
2019-03-28T12:33:41.103Z,25.09
2019-03-28T12:34:41.347Z,25.12
2019-03-28T12:35:41.062Z,25.16
2019-03-28T12:36:41.323Z,25.10
2019-03-28T12:37:41.324Z,25.13
2019-03-28T12:38:41.129Z,25.06
2019-03-28T12:39:41.065Z,25.07
2019-03-28T12:40:41.056Z,25.07
2019-03-28T12:41:41.387Z,25.02
2019-03-28T12:42:41.017Z,25.09
2019-03-28T12:43:41.040Z,25.06
2019-03-28T12:44:41.224Z,25.15
2019-03-28T12:45:41.251Z,24.98
2019-03-28T12:46:41.032Z,25.07
2019-03-28T12:47:42.762Z,25.19
2019-03-28T12:48:40.962Z,25.07
2019-03-28T12:49:41.190Z,25.16
2019-03-28T12:50:41.169Z,25.06
2019-03-28T12:51:41.161Z,25.13
2019-03-28T12:52:40.921Z,25.07
2019-03-28T12:53:41.181Z,25.13
2019-03-28T12:54:44.001Z,25.07
2019-03-28T12:55:40.917Z,25.06
2019-03-28T12:56:41.132Z,25.12
2019-03-28T12:57:41.167Z,25.00
2019-03-28T12:58:41.153Z,25.12
2019-03-28T12:59:41.529Z,25.10
2019-03-28T13:00:41.112Z,25.16
2019-03-28T13:02:40.886Z,25.09
2019-03-28T13:03:45.778Z,25.10
2019-03-28T13:04:40.857Z,24.97
2019-03-28T13:05:41.093Z,25.06
2019-03-28T13:06:40.831Z,25.10
2019-03-28T13:07:41.088Z,25.15
2019-03-28T13:08:41.075Z,25.10
2019-03-28T13:09:40.804Z,24.98
2019-03-28T13:10:41.052Z,25.12
2019-03-28T13:11:40.811Z,25.12
2019-03-28T13:12:41.013Z,25.00
2019-03-28T13:13:40.784Z,24.98
2019-03-28T13:14:40.767Z,25.07
2019-03-28T13:15:41.024Z,25.12
2019-03-28T13:16:40.791Z,25.09
2019-03-28T13:17:40.959Z,25.07
2019-03-28T13:18:40.994Z,25.12
2019-03-28T13:19:40.936Z,25.07
2019-03-28T13:20:40.940Z,25.13
2019-03-28T13:21:40.732Z,25.13
2019-03-28T13:22:40.714Z,25.07
2019-03-28T13:23:40.918Z,25.07
2019-03-28T13:24:40.944Z,25.13
2019-03-28T13:25:40.912Z,25.05
2019-03-28T13:26:40.654Z,25.06
2019-03-28T13:27:40.650Z,25.07
2019-03-28T13:28:40.691Z,25.02
2019-03-28T13:29:40.907Z,25.00
2019-03-28T13:30:40.850Z,25.01
2019-03-28T13:31:40.606Z,25.02
2019-03-28T13:32:42.134Z,25.06
2019-03-28T13:33:40.602Z,25.00
2019-03-28T13:34:40.857Z,25.12
2019-03-28T13:35:40.815Z,24.98
2019-03-28T13:36:40.819Z,25.10
2019-03-28T13:37:40.571Z,25.13
2019-03-28T13:38:40.835Z,25.09